| time (UTC) | temp C | wind direction | speed KPH | gust KPH | rain 1hr cm | rain 24hr cm | rain mn cm | humidity % | barometer mb |
| 20260906200904 | 32 | 164 | 14.5 | 16.1 | 0.00 | 3.28 | 3.28 | 56 | 1014.2 |
| 20260906200400 | 31 | 195 | 3.2 | 3.2 | 0.00 | 3.28 | 3.28 | 56 | 1014.1 |
| 20260906195900 | 32 | 219 | 6.4 | 8.0 | 0.00 | 3.28 | 3.28 | 57 | 1014.4 |
| 20260906195356 | 31 | 166 | 1.6 | 3.2 | 0.00 | 3.28 | 3.28 | 57 | 1014.3 |
| 20260906194852 | 31 | 153 | 6.4 | 12.9 | 0.00 | 3.28 | 3.28 | 57 | 1014.5 |
| 20260906194348 | 31 | 117 | 9.7 | 12.9 | 0.00 | 3.28 | 3.28 | 58 | 1014.5 |
| 20260906193842 | 31 | 242 | 4.8 | 4.8 | 0.00 | 3.28 | 3.28 | 59 | 1014.7 |
| 20260906193338 | 30 | 72 | 8.0 | 12.9 | 0.00 | 3.28 | 3.28 | 61 | 1014.6 |
| 20260906192833 | 30 | 80 | 6.4 | 12.9 | 0.00 | 3.28 | 3.28 | 60 | 1014.2 |
| 20260906192327 | 30 | 100 | 3.2 | 8.0 | 0.00 | 3.28 | 3.28 | 61 | 1014.4 |
| 20260906191826 | 30 | 156 | 8.0 | 12.9 | 0.00 | 3.28 | 3.28 | 60 | 1014.5 |
| 20260906191321 | 29 | 189 | 3.2 | 3.2 | 0.00 | 3.28 | 3.28 | 64 | 1014.4 |
| 20260906190816 | 29 | 138 | 8.0 | 12.9 | 0.00 | 3.28 | 3.28 | 63 | 1014.6 |
| 20260906190315 | 28 | 161 | 6.4 | 8.0 | 0.00 | 3.28 | 3.28 | 64 | 1014.8 |
| 20260906185815 | 27 | 140 | 4.8 | 4.8 | 0.00 | 3.28 | 3.28 | 65 | 1014.8 |
| 20260906185314 | 27 | 158 | 1.6 | 3.2 | 0.00 | 3.28 | 3.28 | 68 | 1014.7 |
| 20260906184809 | 27 | 153 | 6.4 | 9.7 | 0.00 | 3.28 | 3.28 | 67 | 1014.8 |
| 20260906184304 | 28 | 166 | 9.7 | 12.9 | 0.00 | 3.28 | 3.28 | 64 | 1014.8 |
| 20260906183759 | 28 | 184 | 9.7 | 12.9 | 0.00 | 3.28 | 3.28 | 63 | 1014.8 |
| 20260906183256 | 29 | 155 | 4.8 | 9.7 | 0.00 | 3.28 | 3.28 | 63 | 1015.0 |
| 20260906182755 | 29 | 139 | 11.3 | 14.5 | 0.00 | 3.28 | 3.28 | 62 | 1015.0 |
| 20260906182251 | 28 | 129 | 11.3 | 12.9 | 0.00 | 3.28 | 3.28 | 64 | 1014.7 |
| 20260906181746 | 28 | 163 | 8.0 | 9.7 | 0.00 | 3.28 | 3.28 | 64 | 1015.0 |
| 20260906181242 | 28 | 172 | 4.8 | 9.7 | 0.00 | 3.28 | 3.28 | 64 | 1015.1 |
| 20260906180737 | 28 | 157 | 9.7 | 14.5 | 0.00 | 3.28 | 3.28 | 62 | 1015.0 |
| 20260906180232 | 28 | 189 | 1.6 | 1.6 | 0.00 | 3.28 | 3.28 | 64 | 1014.8 |
| 20260906175729 | 28 | 150 | 8.0 | 12.9 | 0.00 | 3.28 | 3.28 | 63 | 1014.8 |
| 20260906175225 | 28 | 175 | 6.4 | 9.7 | 0.00 | 3.28 | 3.28 | 62 | 1015.2 |
| 20260906174724 | 28 | 112 | 11.3 | 17.7 | 0.00 | 3.28 | 3.28 | 63 | 1015.0 |
| 20260906174218 | 28 | 164 | 19.3 | 27.4 | 0.00 | 3.28 | 3.28 | 62 | 1015.0 |
| 20260906173713 | 28 | 119 | 8.0 | 9.7 | 0.00 | 3.28 | 3.28 | 64 | 1014.8 |
| 20260906173209 | 27 | 105 | 3.2 | 4.8 | 0.00 | 3.28 | 3.28 | 64 | 1015.3 |
| 20260906172703 | 27 | 229 | 8.0 | 11.3 | 0.00 | 3.28 | 3.28 | 66 | 1015.2 |
| 20260906172158 | 27 | 131 | 14.5 | 22.5 | 0.00 | 3.28 | 3.28 | 63 | 1015.2 |
| 20260906171658 | 27 | 220 | 8.0 | 14.5 | 0.00 | 3.28 | 3.28 | 66 | 1014.8 |
| 20260906171154 | 27 | 180 | 9.7 | 12.9 | 0.00 | 3.28 | 3.28 | 65 | 1015.1 |
| 20260906170650 | 27 | 194 | 8.0 | 12.9 | 0.00 | 3.28 | 3.28 | 66 | 1015.0 |
| 20260906170149 | 27 | 201 | 3.2 | 4.8 | 0.00 | 3.28 | 3.28 | 67 | 1014.8 |
| 20260906165646 | 26 | 147 | 8.0 | 14.5 | 0.00 | 3.28 | 3.28 | 67 | 1015.1 |
| 20260906165141 | 26 | 155 | 8.0 | 12.9 | 0.00 | 3.28 | 3.28 | 69 | 1014.8 |
| 20260906164639 | 26 | 165 | 3.2 | 3.2 | 0.00 | 3.28 | 3.28 | 69 | 1015.0 |
| 20260906164135 | 26 | 181 | 8.0 | 12.9 | 0.00 | 3.28 | 3.28 | 67 | 1015.0 |
| 20260906163631 | 25 | 210 | 1.6 | 3.2 | 0.00 | 3.28 | 3.28 | 71 | 1015.1 |
| 20260906163127 | 26 | 190 | 4.8 | 4.8 | 0.00 | 3.28 | 3.28 | 68 | 1014.8 |
| 20260906162624 | 26 | 106 | 8.0 | 11.3 | 0.00 | 3.28 | 3.28 | 66 | 1014.8 |
| 20260906162118 | 25 | 121 | 4.8 | 4.8 | 0.00 | 3.28 | 3.28 | 69 | 1015.0 |
| 20260906161618 | 25 | 117 | 4.8 | 8.0 | 0.00 | 3.28 | 3.28 | 73 | 1015.0 |
| 20260906161117 | 23 | 102 | 3.2 | 3.2 | 0.00 | 3.28 | 3.28 | 75 | 1015.0 |
| 20260906160616 | 22 | 177 | 8.0 | 11.3 | 0.00 | 3.28 | 3.28 | 78 | 1014.8 |
| 20260906160115 | 22 | 162 | 11.3 | 14.5 | 0.00 | 3.28 | 3.28 | 78 | 1015.0 |
| 20260906155613 | 21 | 205 | 6.4 | 9.7 | 0.00 | 3.28 | 3.28 | 80 | 1014.6 |
| 20260906155109 | 21 | 148 | 6.4 | 11.3 | 0.00 | 3.28 | 3.28 | 80 | 1014.8 |
| 20260906154604 | 21 | 171 | 6.4 | 11.3 | 0.00 | 3.28 | 3.28 | 81 | 1015.0 |
| 20260906154102 | 21 | 266 | 4.8 | 8.0 | 0.00 | 3.28 | 3.28 | 81 | 1014.7 |
| 20260906153601 | 21 | 160 | 9.7 | 16.1 | 0.00 | 3.28 | 3.28 | 81 | 1015.0 |
| 20260906153057 | 20 | 147 | 8.0 | 12.9 | 0.00 | 3.28 | 3.28 | 82 | 1014.8 |
| 20260906152557 | 20 | 163 | 4.8 | 8.0 | 0.00 | 3.28 | 3.28 | 84 | 1015.1 |
| 20260906152051 | 20 | 142 | 3.2 | 4.8 | 0.00 | 3.28 | 3.28 | 83 | 1014.7 |
| 20260906151546 | 20 | 203 | 9.7 | 14.5 | 0.00 | 3.28 | 3.28 | 84 | 1014.3 |
| 20260906151042 | 19 | 147 | 12.9 | 20.9 | 0.00 | 3.28 | 3.28 | 87 | 1014.6 |
| 20260906150537 | 19 | 165 | 8.0 | 12.9 | 0.00 | 3.28 | 3.28 | 90 | 1014.6 |
| 20260906150032 | 18 | 194 | 6.4 | 8.0 | 0.00 | 3.28 | 3.28 | 91 | 1013.7 |
| 20260906145531 | 18 | 153 | 12.9 | 25.7 | 0.00 | 3.28 | 3.28 | 91 | 1013.4 |
| 20260906145026 | 18 | 120 | 17.7 | 32.2 | 0.18 | 3.28 | 3.28 | 93 | 1013.6 |
| 20260906144520 | 18 | 144 | 14.5 | 20.9 | 0.30 | 3.28 | 3.28 | 94 | 1013.9 |
| 20260906144016 | 18 | 175 | 19.3 | 35.4 | 0.13 | 3.25 | 3.25 | 95 | 1014.7 |
| 20260906143511 | 18 | 201 | 14.5 | 20.9 | 0.13 | 3.25 | 3.25 | 95 | 1015.9 |
| 20260906143007 | 18 | 110 | 8.0 | 11.3 | 0.18 | 3.23 | 3.23 | 96 | 1016.9 |
| 20260906142501 | 18 | 47 | 6.4 | 9.7 | 0.18 | 3.23 | 3.23 | 96 | 1017.0 |
| 20260906141955 | 18 | 159 | 9.7 | 14.5 | 0.13 | 3.20 | 3.20 | 96 | 1017.2 |
| 20260906141449 | 18 | 159 | 11.3 | 14.5 | 0.13 | 3.20 | 3.20 | 97 | 1017.3 |
| 20260906140944 | 18 | 193 | 9.7 | 14.5 | 0.18 | 3.17 | 3.17 | 97 | 1017.2 |
| 20260906140438 | 18 | 176 | 9.7 | 14.5 | 0.18 | 3.17 | 3.17 | 98 | 1017.9 |
| 20260906135931 | 18 | 144 | 8.0 | 11.3 | 0.13 | 3.15 | 3.15 | 98 | 1018.4 |
| 20260906135430 | 18 | 147 | 8.0 | 11.3 | 0.13 | 3.15 | 3.15 | 98 | 1018.9 |
| 20260906134926 | 18 | 200 | 4.8 | 4.8 | 0.18 | 3.12 | 3.12 | 98 | 1019.1 |
| 20260906134421 | 18 | 190 | 4.8 | 9.7 | 0.18 | 3.12 | 3.12 | 98 | 1019.1 |
| 20260906133916 | 18 | 158 | 1.6 | 1.6 | 0.18 | 3.10 | 3.10 | 98 | 1019.2 |
| 20260906133412 | 18 | 137 | 1.6 | 1.6 | 0.30 | 3.10 | 3.10 | 98 | 1018.9 |
| 20260906132907 | 18 | 142 | 3.2 | 3.2 | 0.30 | 3.07 | 3.07 | 98 | 1018.9 |
| 20260906132403 | 18 | 155 | 3.2 | 3.2 | 0.30 | 3.07 | 3.07 | 98 | 1019.0 |
| 20260906131858 | 18 | 128 | 0.0 | 1.6 | 0.13 | 3.02 | 3.02 | 98 | 1019.0 |
| 20260906131353 | 18 | 160 | 0.0 | 0.0 | 0.13 | 3.02 | 3.02 | 98 | 1018.8 |
| 20260906130849 | 18 | 217 | 0.0 | 1.6 | 0.30 | 3.00 | 3.00 | 98 | 1019.4 |
| 20260906130348 | 18 | 77 | 0.0 | 0.0 | 0.30 | 3.00 | 3.00 | 98 | 1019.0 |
| 20260906125848 | 18 | 145 | 0.0 | 1.6 | 0.30 | 2.95 | 2.95 | 98 | 1019.0 |
| 20260906125345 | 18 | 40 | 0.0 | 0.0 | 0.89 | 2.95 | 2.95 | 98 | 1019.0 |
| 20260906124839 | 18 | 166 | 0.0 | 1.6 | 1.27 | 2.90 | 2.90 | 98 | 1019.4 |
| 20260906124336 | 18 | 178 | 1.6 | 1.6 | 1.07 | 2.82 | 2.82 | 98 | 1019.2 |
| 20260906123835 | 18 | 124 | 0.0 | 0.0 | 0.71 | 2.69 | 2.69 | 98 | 1018.8 |
| 20260906123330 | 18 | 103 | 1.6 | 1.6 | 0.61 | 2.62 | 2.62 | 98 | 1018.4 |
| 20260906122829 | 18 | 108 | 0.0 | 0.0 | 0.48 | 2.57 | 2.57 | 98 | 1018.4 |
| 20260906122324 | 18 | 115 | 0.0 | 0.0 | 0.43 | 2.54 | 2.54 | 98 | 1018.1 |
| 20260906121821 | 18 | 155 | 0.0 | 1.6 | 0.30 | 2.49 | 2.49 | 98 | 1018.0 |
| 20260906121317 | 18 | 68 | 1.6 | 1.6 | 0.18 | 2.46 | 2.46 | 98 | 1018.1 |
| 20260906120813 | 18 | 43 | 1.6 | 1.6 | 0.30 | 2.44 | 2.44 | 98 | 1018.0 |
| 20260906120309 | 18 | 184 | 0.0 | 0.0 | 0.48 | 2.44 | 2.44 | 98 | 1017.7 |
| 20260906115804 | 18 | 28 | 3.2 | 3.2 | 0.30 | 2.39 | 2.39 | 97 | 1018.0 |
| 20260906115254 | 18 | 38 | 3.2 | 4.8 | 0.71 | 2.36 | 2.36 | 97 | 1018.1 |
| 20260906114753 | 18 | 30 | 4.8 | 8.0 | 2.16 | 2.34 | 2.34 | 97 | 1018.2 |
| 20260906114249 | 18 | 7 | 4.8 | 4.8 | 2.16 | 2.24 | 2.24 | 97 | 1018.2 |
| 20260906113744 | 18 | 15 | 1.6 | 1.6 | 0.89 | 1.98 | 1.98 | 97 | 1018.5 |
| 20260906113243 | 18 | 325 | 1.6 | 3.2 | 0.48 | 1.88 | 1.88 | 97 | 1018.7 |
| 20260906112743 | 18 | 14 | 8.0 | 9.7 | 0.48 | 1.85 | 1.85 | 97 | 1018.3 |
| 20260906112239 | 18 | 47 | 3.2 | 4.8 | 0.48 | 1.83 | 1.83 | 97 | 1018.0 |
| 20260906111738 | 18 | 347 | 11.3 | 14.5 | 0.30 | 1.78 | 1.78 | 97 | 1017.9 |
| 20260906111232 | 18 | 331 | 11.3 | 14.5 | 0.43 | 1.75 | 1.75 | 97 | 1017.9 |
| 20260906110722 | 18 | 37 | 8.0 | 12.9 | 0.61 | 1.73 | 1.73 | 97 | 1017.9 |
| 20260906110219 | 18 | 351 | 6.4 | 9.7 | 1.07 | 1.68 | 1.68 | 97 | 1018.0 |
| 20260906105717 | 18 | 251 | 3.2 | 4.8 | 0.97 | 1.63 | 1.63 | 97 | 1018.0 |
| 20260906105214 | 18 | 326 | 9.7 | 12.9 | 0.18 | 1.50 | 1.50 | 96 | 1017.9 |
| 20260906104713 | 18 | 9 | 3.2 | 8.0 | 0.13 | 1.47 | 1.47 | 96 | 1017.6 |
| 20260906104213 | 18 | 316 | 12.9 | 16.1 | 0.89 | 1.47 | 1.47 | 96 | 1017.5 |
| 20260906103710 | 19 | 319 | 8.0 | 14.5 | 1.50 | 1.45 | 1.45 | 96 | 1017.3 |
| 20260906103205 | 19 | 26 | 12.9 | 14.5 | 1.27 | 1.35 | 1.35 | 96 | 1016.9 |
| 20260906102701 | 19 | 71 | 4.8 | 8.0 | 0.79 | 1.22 | 1.22 | 96 | 1017.0 |
| 20260906102200 | 19 | 356 | 8.0 | 9.7 | 2.29 | 1.14 | 1.14 | 95 | 1016.9 |
| 20260906101659 | 19 | 300 | 6.4 | 11.3 | 3.48 | 1.09 | 1.09 | 95 | 1016.8 |
| 20260906101155 | 19 | 342 | 9.7 | 14.5 | 2.29 | 0.84 | 0.84 | 94 | 1016.9 |
| 20260906100650 | 20 | 32 | 4.8 | 4.8 | 0.79 | 0.51 | 0.51 | 94 | 1017.1 |
| 20260906100145 | 20 | 288 | 8.0 | 11.3 | 2.59 | 0.46 | 0.46 | 93 | 1017.0 |
| 20260906095640 | 20 | 0 | 12.9 | 17.7 | 2.46 | 0.41 | 0.41 | 91 | 1016.7 |
| 20260906095135 | 21 | 315 | 8.0 | 12.9 | 0.30 | 0.05 | 0.05 | 88 | 1016.3 |
| 20260906094634 | 21 | 344 | 9.7 | 12.9 | 0.00 | 0.00 | 0.00 | 87 | 1016.3 |
| 20260906094130 | 21 | 320 | 9.7 | 20.9 | 0.00 | 0.00 | 0.00 | 86 | 1016.0 |
| 20260906093626 | 21 | 356 | 14.5 | 17.7 | 0.00 | 0.00 | 0.00 | 85 | 1015.8 |
| 20260906093126 | 21 | 332 | 9.7 | 12.9 | 0.00 | 0.00 | 0.00 | 83 | 1015.9 |
| 20260906092621 | 22 | 319 | 8.0 | 12.9 | 0.00 | 0.00 | 0.00 | 83 | 1016.0 |
| 20260906092116 | 22 | 289 | 9.7 | 12.9 | 0.00 | 0.00 | 0.00 | 83 | 1015.5 |
| 20260906091612 | 22 | 326 | 19.3 | 25.7 | 0.00 | 0.00 | 0.00 | 82 | 1015.2 |
| 20260906091109 | 22 | 317 | 11.3 | 12.9 | 0.00 | 0.00 | 0.00 | 84 | 1015.4 |
| 20260906090608 | 22 | 126 | 0.0 | 0.0 | 0.00 | 0.00 | 0.00 | 84 | 1014.2 |
| 20260906090103 | 22 | 88 | 0.0 | 0.0 | 0.00 | 0.00 | 0.00 | 85 | 1014.0 |
| 20260906085602 | 22 | 114 | 0.0 | 0.0 | 0.00 | 0.00 | 0.00 | 85 | 1013.9 |
| 20260906085056 | 22 | 119 | 0.0 | 0.0 | 0.00 | 0.00 | 0.00 | 85 | 1013.9 |
| 20260906084551 | 22 | 119 | 0.0 | 0.0 | 0.00 | 0.00 | 0.00 | 85 | 1013.9 |
| 20260906084050 | 22 | 115 | 0.0 | 0.0 | 0.00 | 0.00 | 0.00 | 84 | 1014.0 |
| 20260906083546 | 22 | 119 | 0.0 | 0.0 | 0.00 | 0.00 | 0.00 | 84 | 1014.2 |
| 20260906083045 | 22 | 84 | 1.6 | 1.6 | 0.00 | 0.00 | 0.00 | 83 | 1013.9 |
| 20260906082541 | 22 | 99 | 1.6 | 1.6 | 0.00 | 0.00 | 0.00 | 83 | 1013.8 |
| 20260906082037 | 22 | 131 | 0.0 | 1.6 | 0.00 | 0.00 | 0.00 | 82 | 1013.8 |
| 20260906081532 | 22 | 150 | 0.0 | 0.0 | 0.00 | 0.00 | 0.00 | 81 | 1013.7 |
| 20260906081027 | 22 | 151 | 1.6 | 3.2 | 0.00 | 0.00 | 0.00 | 81 | 1013.9 |
| 20260906080523 | 22 | 163 | 1.6 | 1.6 | 0.00 | 0.00 | 0.00 | 81 | 1013.9 |
| 20260906080019 | 22 | 166 | 1.6 | 3.2 | 0.00 | 0.00 | 0.00 | 81 | 1013.9 |
| 20260906075514 | 22 | 155 | 3.2 | 3.2 | 0.00 | 0.00 | 0.00 | 80 | 1014.1 |
| 20260906075009 | 22 | 163 | 3.2 | 3.2 | 0.00 | 0.00 | 0.00 | 80 | 1014.1 |
| 20260906074503 | 22 | 143 | 1.6 | 3.2 | 0.00 | 0.00 | 0.00 | 81 | 1014.2 |
| 20260906074002 | 22 | 178 | 0.0 | 1.6 | 0.00 | 0.00 | 0.00 | 82 | 1014.3 |
| 20260906073456 | 22 | 133 | 1.6 | 3.2 | 0.00 | 0.00 | 0.00 | 82 | 1014.1 |
| 20260906072953 | 22 | 135 | 3.2 | 4.8 | 0.00 | 0.00 | 0.00 | 81 | 1014.4 |
| 20260906072448 | 22 | 177 | 1.6 | 4.8 | 0.00 | 0.00 | 0.00 | 81 | 1014.3 |
| 20260906071944 | 22 | 131 | 1.6 | 3.2 | 0.00 | 0.00 | 0.00 | 80 | 1014.3 |
| 20260906071440 | 22 | 154 | 3.2 | 4.8 | 0.00 | 0.00 | 0.00 | 79 | 1014.4 |
| 20260906070935 | 23 | 162 | 1.6 | 3.2 | 0.00 | 0.00 | 0.00 | 78 | 1014.4 |
| 20260906070431 | 23 | 164 | 1.6 | 3.2 | 0.00 | 0.00 | 0.00 | 78 | 1014.5 |
| 20260906065926 | 23 | 153 | 3.2 | 4.8 | 0.00 | 0.00 | 0.00 | 78 | 1014.5 |
| 20260906065421 | 23 | 123 | 1.6 | 3.2 | 0.00 | 0.00 | 0.00 | 78 | 1014.4 |
| 20260906064916 | 23 | 157 | 3.2 | 4.8 | 0.00 | 0.00 | 0.00 | 79 | 1014.6 |
| 20260906064413 | 23 | 131 | 3.2 | 4.8 | 0.00 | 0.00 | 0.00 | 79 | 1014.4 |
| 20260906063913 | 23 | 155 | 3.2 | 3.2 | 0.00 | 0.00 | 0.00 | 77 | 1014.3 |
| 20260906063408 | 23 | 166 | 1.6 | 1.6 | 0.00 | 0.00 | 0.00 | 77 | 1014.2 |
| 20260906062903 | 23 | 139 | 3.2 | 3.2 | 0.00 | 0.00 | 0.00 | 77 | 1014.4 |
| 20260906062402 | 23 | 152 | 1.6 | 1.6 | 0.00 | 0.00 | 0.00 | 77 | 1014.2 |
| 20260906061857 | 23 | 139 | 3.2 | 4.8 | 0.00 | 0.00 | 0.00 | 77 | 1014.3 |
| 20260906061349 | 22 | 139 | 6.4 | 9.7 | 0.00 | 0.00 | 0.00 | 79 | 1014.1 |
| 20260906060843 | 22 | 139 | 4.8 | 4.8 | 0.00 | 0.00 | 0.00 | 80 | 1014.1 |
| 20260906060340 | 22 | 167 | 1.6 | 1.6 | 0.00 | 0.00 | 0.00 | 81 | 1014.2 |
| 20260906055836 | 22 | 140 | 1.6 | 1.6 | 0.00 | 0.00 | 0.00 | 81 | 1014.5 |
| 20260906055332 | 22 | 159 | 1.6 | 1.6 | 0.00 | 0.00 | 0.00 | 82 | 1014.2 |
| 20260906054826 | 22 | 143 | 1.6 | 1.6 | 0.00 | 0.00 | 0.00 | 82 | 1014.2 |
| 20260906054321 | 22 | 143 | 3.2 | 3.2 | 0.00 | 0.00 | 0.00 | 82 | 1014.1 |
| 20260906053818 | 22 | 132 | 0.0 | 1.6 | 0.00 | 0.00 | 0.00 | 82 | 1014.3 |
| 20260906053314 | 22 | 132 | 0.0 | 0.0 | 0.00 | 0.00 | 0.00 | 82 | 1014.4 |
| 20260906052808 | 22 | 132 | 0.0 | 0.0 | 0.00 | 0.00 | 0.00 | 82 | 1014.2 |
| 20260906052306 | 22 | 134 | 0.0 | 0.0 | 0.00 | 0.00 | 0.00 | 82 | 1014.4 |
| 20260906051802 | 22 | 132 | 0.0 | 0.0 | 0.00 | 0.00 | 0.00 | 81 | 1014.5 |
| 20260906051301 | 22 | 125 | 0.0 | 0.0 | 0.00 | 0.00 | 0.00 | 82 | 1014.5 |
| 20260906050756 | 22 | 125 | 0.0 | 0.0 | 0.00 | 0.00 | 0.00 | 81 | 1014.5 |
| 20260906050252 | 22 | 132 | 0.0 | 0.0 | 0.00 | 0.00 | 0.00 | 81 | 1014.4 |
| 20260906045750 | 23 | 136 | 0.0 | 0.0 | 0.00 | 0.00 | 0.00 | 81 | 1014.3 |
| 20260906045245 | 23 | 133 | 0.0 | 0.0 | 0.00 | 0.00 | 0.00 | 81 | 1014.6 |
| 20260906044741 | 23 | 134 | 0.0 | 0.0 | 0.00 | 0.00 | 0.00 | 80 | 1014.4 |
| 20260906044236 | 23 | 137 | 0.0 | 0.0 | 0.00 | 0.00 | 0.00 | 80 | 1014.3 |
| 20260906043732 | 23 | 141 | 0.0 | 1.6 | 0.00 | 0.00 | 0.00 | 80 | 1014.4 |
| 20260906043227 | 23 | 132 | 0.0 | 0.0 | 0.00 | 0.00 | 0.00 | 79 | 1014.3 |
| 20260906042727 | 23 | 139 | 0.0 | 0.0 | 0.00 | 0.00 | 0.00 | 79 | 1014.2 |
| 20260906042225 | 23 | 129 | 0.0 | 0.0 | 0.00 | 0.00 | 0.00 | 78 | 1014.2 |
| 20260906041721 | 24 | 80 | 0.0 | 0.0 | 0.00 | 0.00 | 0.00 | 77 | 1014.2 |
| 20260906041216 | 24 | 121 | 0.0 | 0.0 | 0.00 | 0.00 | 0.00 | 77 | 1014.4 |
| 20260906040712 | 24 | 121 | 0.0 | 0.0 | 0.00 | 0.00 | 0.00 | 76 | 1014.3 |
| 20260906040207 | 25 | 111 | 0.0 | 0.0 | 0.00 | 0.00 | 0.00 | 75 | 1014.1 |
| 20260906035703 | 25 | 135 | 3.2 | 4.8 | 0.00 | 0.00 | 0.00 | 74 | 1014.4 |
| 20260906035159 | 25 | 165 | 1.6 | 3.2 | 0.00 | 0.00 | 0.00 | 75 | 1014.1 |
| 20260906034659 | 25 | 187 | 1.6 | 1.6 | 0.00 | 0.00 | 0.00 | 74 | 1014.0 |
| 20260906034154 | 25 | 196 | 1.6 | 1.6 | 0.00 | 0.00 | 0.00 | 74 | 1013.9 |
| 20260906033649 | 25 | 173 | 3.2 | 3.2 | 0.00 | 0.00 | 0.00 | 74 | 1013.8 |
| 20260906033144 | 25 | 159 | 3.2 | 3.2 | 0.00 | 0.00 | 0.00 | 74 | 1013.9 |
| 20260906032641 | 25 | 108 | 1.6 | 3.2 | 0.00 | 0.00 | 0.00 | 75 | 1014.0 |
| 20260906032140 | 24 | 151 | 1.6 | 1.6 | 0.00 | 0.00 | 0.00 | 75 | 1013.8 |
| 20260906031636 | 24 | 128 | 0.0 | 1.6 | 0.00 | 0.00 | 0.00 | 76 | 1013.8 |
| 20260906031131 | 25 | 124 | 0.0 | 1.6 | 0.00 | 0.00 | 0.00 | 75 | 1014.1 |
| 20260906030630 | 25 | 125 | 0.0 | 1.6 | 0.00 | 0.00 | 0.00 | 75 | 1013.7 |
| 20260906030126 | 25 | 123 | 1.6 | 1.6 | 0.00 | 0.00 | 0.00 | 74 | 1013.9 |
| 20260906025625 | 25 | 165 | 4.8 | 4.8 | 0.00 | 0.00 | 0.00 | 73 | 1013.7 |
| 20260906025124 | 25 | 101 | 1.6 | 1.6 | 0.00 | 0.00 | 0.00 | 74 | 1013.8 |
| 20260906024619 | 25 | 177 | 3.2 | 3.2 | 0.00 | 0.00 | 0.00 | 74 | 1013.8 |
| 20260906024113 | 25 | 158 | 4.8 | 4.8 | 0.00 | 0.00 | 0.00 | 75 | 1013.2 |
| 20260906023609 | 25 | 172 | 1.6 | 3.2 | 0.00 | 0.00 | 0.00 | 75 | 1013.4 |
| 20260906023103 | 25 | 158 | 1.6 | 3.2 | 0.00 | 0.00 | 0.00 | 74 | 1013.4 |
| 20260906022559 | 25 | 156 | 1.6 | 3.2 | 0.00 | 0.00 | 0.00 | 74 | 1013.3 |
| 20260906022054 | 25 | 151 | 1.6 | 1.6 | 0.00 | 0.00 | 0.00 | 74 | 1013.3 |
| 20260906021550 | 25 | 198 | 1.6 | 3.2 | 0.00 | 0.00 | 0.00 | 74 | 1013.4 |
| 20260906021048 | 25 | 151 | 1.6 | 3.2 | 0.00 | 0.00 | 0.00 | 74 | 1013.3 |
| 20260906020543 | 26 | 155 | 1.6 | 3.2 | 0.00 | 0.00 | 0.00 | 73 | 1013.1 |
| 20260906020042 | 26 | 138 | 3.2 | 4.8 | 0.00 | 0.00 | 0.00 | 72 | 1013.2 |
| 20260906015541 | 26 | 127 | 3.2 | 4.8 | 0.00 | 0.00 | 0.00 | 71 | 1013.0 |
| 20260906015036 | 26 | 144 | 3.2 | 4.8 | 0.00 | 0.00 | 0.00 | 70 | 1013.1 |
| 20260906014531 | 26 | 137 | 3.2 | 3.2 | 0.00 | 0.00 | 0.00 | 71 | 1013.0 |
| 20260906014027 | 26 | 172 | 1.6 | 3.2 | 0.00 | 0.00 | 0.00 | 70 | 1013.1 |
| 20260906013522 | 27 | 154 | 3.2 | 4.8 | 0.00 | 0.00 | 0.00 | 70 | 1013.0 |
| 20260906013018 | 27 | 137 | 3.2 | 4.8 | 0.00 | 0.00 | 0.00 | 70 | 1013.2 |
| 20260906012513 | 27 | 193 | 3.2 | 4.8 | 0.00 | 0.00 | 0.00 | 70 | 1012.9 |
| 20260906012011 | 27 | 141 | 3.2 | 4.8 | 0.00 | 0.00 | 0.00 | 70 | 1012.9 |
| 20260906011508 | 27 | 164 | 4.8 | 4.8 | 0.00 | 0.00 | 0.00 | 70 | 1012.7 |
| 20260906011002 | 27 | 138 | 1.6 | 3.2 | 0.00 | 0.00 | 0.00 | 73 | 1012.8 |
| 20260906010457 | 27 | 133 | 0.0 | 0.0 | 0.00 | 0.00 | 0.00 | 75 | 1012.6 |
| 20260906005954 | 27 | 134 | 0.0 | 0.0 | 0.00 | 0.00 | 0.00 | 75 | 1012.9 |
| 20260906005453 | 28 | 133 | 0.0 | 0.0 | 0.00 | 0.00 | 0.00 | 74 | 1012.7 |
| 20260906004951 | 28 | 135 | 0.0 | 0.0 | 0.00 | 0.00 | 0.00 | 74 | 1012.7 |
| 20260906004451 | 28 | 134 | 0.0 | 0.0 | 0.00 | 0.00 | 0.00 | 73 | 1012.7 |
| 20260906003947 | 28 | 134 | 0.0 | 0.0 | 0.00 | 0.00 | 0.00 | 73 | 1012.6 |
| 20260906003442 | 29 | 134 | 0.0 | 0.0 | 0.00 | 0.00 | 0.00 | 72 | 1012.4 |
| 20260906002937 | 29 | 92 | 0.0 | 1.6 | 0.00 | 0.00 | 0.00 | 73 | 1012.4 |
| 20260906002436 | 29 | 154 | 0.0 | 1.6 | 0.00 | 0.00 | 0.00 | 73 | 1012.6 |
| 20260906001932 | 30 | 102 | 1.6 | 1.6 | 0.00 | 0.00 | 0.00 | 73 | 1012.7 |
| 20260906001428 | 30 | 105 | 0.0 | 1.6 | 0.00 | 0.00 | 0.00 | 73 | 1012.9 |
| 20260906000923 | 30 | 73 | 1.6 | 1.6 | 0.00 | 0.00 | 0.00 | 72 | 1012.6 |
| 20260906000418 | 30 | 110 | 0.0 | 0.0 | 0.00 | 0.00 | 0.00 | 72 | 1012.6 |
| 20260905235913 | 30 | 78 | 0.0 | 1.6 | 0.00 | 0.00 | 0.00 | 71 | 1012.9 |
| 20260905235407 | 30 | 100 | 1.6 | 1.6 | 0.00 | 0.00 | 0.00 | 70 | 1012.5 |
| 20260905234902 | 31 | 50 | 1.6 | 1.6 | 0.00 | 0.00 | 0.00 | 69 | 1012.6 |
| 20260905234357 | 31 | 99 | 0.0 | 1.6 | 0.00 | 0.00 | 0.00 | 68 | 1012.6 |
| 20260905233852 | 31 | 124 | 1.6 | 1.6 | 0.00 | 0.00 | 0.00 | 68 | 1012.7 |
| 20260905233347 | 32 | 112 | 1.6 | 3.2 | 0.00 | 0.00 | 0.00 | 66 | 1012.6 |
| 20260905232847 | 32 | 80 | 3.2 | 3.2 | 0.00 | 0.00 | 0.00 | 64 | 1012.5 |
| 20260905232343 | 32 | 111 | 1.6 | 3.2 | 0.00 | 0.00 | 0.00 | 63 | 1012.5 |
| 20260905231838 | 33 | 55 | 3.2 | 3.2 | 0.00 | 0.00 | 0.00 | 62 | 1012.3 |
| 20260905231339 | 33 | 58 | 3.2 | 4.8 | 0.00 | 0.00 | 0.00 | 61 | 1012.5 |
| 20260905230836 | 33 | 72 | 1.6 | 1.6 | 0.00 | 0.00 | 0.00 | 60 | 1012.4 |
| 20260905230333 | 33 | 76 | 1.6 | 3.2 | 0.00 | 0.00 | 0.00 | 61 | 1012.5 |
| 20260905225832 | 33 | 89 | 3.2 | 3.2 | 0.00 | 0.00 | 0.00 | 61 | 1012.4 |
| 20260905225327 | 33 | 110 | 1.6 | 3.2 | 0.00 | 0.00 | 0.00 | 62 | 1012.0 |
| 20260905224822 | 33 | 141 | 4.8 | 4.8 | 0.00 | 0.00 | 0.00 | 61 | 1012.2 |
| 20260905224318 | 33 | 181 | 1.6 | 3.2 | 0.00 | 0.00 | 0.00 | 60 | 1012.3 |
| 20260905223818 | 33 | 84 | 3.2 | 3.2 | 0.00 | 0.00 | 0.00 | 62 | 1012.3 |
| 20260905223315 | 32 | 19 | 1.6 | 3.2 | 0.00 | 0.00 | 0.00 | 62 | 1012.3 |
| 20260905222810 | 33 | 55 | 3.2 | 3.2 | 0.00 | 0.00 | 0.00 | 62 | 1012.4 |
| 20260905222309 | 33 | 31 | 1.6 | 1.6 | 0.00 | 0.00 | 0.00 | 60 | 1012.6 |
| 20260905221805 | 33 | 159 | 3.2 | 4.8 | 0.00 | 0.00 | 0.00 | 59 | 1012.5 |
| 20260905221302 | 33 | 145 | 3.2 | 8.0 | 0.00 | 0.00 | 0.00 | 62 | 1012.5 |
| 20260905220757 | 32 | 74 | 4.8 | 4.8 | 0.00 | 0.00 | 0.00 | 63 | 1012.7 |
| 20260905220254 | 33 | 64 | 4.8 | 4.8 | 0.00 | 0.00 | 0.00 | 62 | 1012.8 |
| 20260905215752 | 33 | 58 | 4.8 | 8.0 | 0.00 | 0.00 | 0.00 | 57 | 1012.8 |
| 20260905215249 | 33 | 118 | 0.0 | 1.6 | 0.00 | 0.00 | 0.00 | 58 | 1012.6 |
| 20260905214744 | 33 | 84 | 4.8 | 9.7 | 0.00 | 0.00 | 0.00 | 58 | 1012.9 |
| 20260905214240 | 33 | 100 | 6.4 | 11.3 | 0.00 | 0.00 | 0.00 | 60 | 1012.7 |
| 20260905213735 | 33 | 182 | 4.8 | 4.8 | 0.00 | 0.00 | 0.00 | 60 | 1013.0 |
| 20260905213231 | 33 | 352 | 4.8 | 4.8 | 0.00 | 0.00 | 0.00 | 60 | 1013.1 |
| 20260905212726 | 33 | 104 | 4.8 | 4.8 | 0.00 | 0.00 | 0.00 | 58 | 1013.1 |
| 20260905212225 | 33 | 120 | 4.8 | 4.8 | 0.00 | 0.00 | 0.00 | 58 | 1013.1 |
| 20260905211725 | 33 | 166 | 3.2 | 3.2 | 0.00 | 0.00 | 0.00 | 58 | 1013.2 |
| 20260905211220 | 33 | 76 | 0.0 | 1.6 | 0.00 | 0.00 | 0.00 | 57 | 1013.3 |
| 20260905210717 | 33 | 118 | 4.8 | 8.0 | 0.00 | 0.00 | 0.00 | 56 | 1013.7 |
| 20260905210212 | 33 | 41 | 3.2 | 4.8 | 0.00 | 0.00 | 0.00 | 55 | 1013.4 |
| 20260905205711 | 34 | 98 | 3.2 | 8.0 | 0.00 | 0.00 | 0.00 | 51 | 1013.6 |
| 20260905205210 | 34 | 77 | 3.2 | 4.8 | 0.00 | 0.00 | 0.00 | 53 | 1013.7 |
| 20260905204705 | 33 | 132 | 1.6 | 3.2 | 0.00 | 0.00 | 0.00 | 53 | 1013.7 |
| 20260905204200 | 33 | 80 | 4.8 | 8.0 | 0.00 | 0.00 | 0.00 | 52 | 1013.7 |
| 20260905203654 | 33 | 94 | 4.8 | 8.0 | 0.00 | 0.00 | 0.00 | 51 | 1013.9 |
| 20260905203150 | 33 | 77 | 4.8 | 8.0 | 0.00 | 0.00 | 0.00 | 53 | 1014.2 |
| 20260905202645 | 33 | 52 | 8.0 | 12.9 | 0.00 | 0.00 | 0.00 | 52 | 1013.9 |
| 20260905202140 | 33 | 119 | 4.8 | 9.7 | 0.00 | 0.00 | 0.00 | 53 | 1013.9 |
| 20260905201636 | 32 | 58 | 3.2 | 4.8 | 0.00 | 0.00 | 0.00 | 52 | 1014.1 |